Time;durP1;ratioP1;P1;durP2;ratioP2;P2;SDS_P1;SDS_P2;PMS_P1;PMS_P2;Temp;Humidity;BMP_temperature;BMP_pressure;BME280_temperature;BME280_humidity;BME280_pressure;Samples;Min_cycle;Max_cycle;Signal;HPM_P1;HPM_P2
2021/12/21 00:03:53;;;;;;;32.22;13.35;;;;;;;;;;8402313;28;20407;-81
2021/12/21 00:07:58;;;;;;;28.13;11.45;;;;;;;;;;8381099;28;20442;-75
2021/12/21 00:12:02;;;;;;;30.08;12.60;;;;;;;;;;8368498;28;20064;-75
2021/12/21 00:16:14;;;;;;;29.35;12.68;;;;;;;;;;8392206;28;20044;-74
2021/12/21 00:20:30;;;;;;;25.23;11.27;;;;;;;;;;8401479;28;20044;-77
2021/12/21 00:24:44;;;;;;;26.38;12.55;;;;;;;;;;8401171;28;20045;-75
2021/12/21 00:28:55;;;;;;;27.15;11.57;;;;;;;;;;8401194;28;20090;-74
2021/12/21 00:32:59;;;;;;;25.77;9.77;;;;;;;;;;8401320;28;20514;-75
2021/12/21 00:37:02;;;;;;;24.27;10.65;;;;;;;;;;8401388;28;20440;-74
2021/12/21 00:41:07;;;;;;;24.42;9.77;;;;;;;;;;8400802;28;20048;-75
2021/12/21 00:45:11;;;;;;;28.42;11.05;;;;;;;;;;8400679;28;20048;-73
2021/12/21 00:49:16;;;;;;;22.55;10.88;;;;;;;;;;8400914;28;20052;-80
2021/12/21 00:53:19;;;;;;;19.60;9.18;;;;;;;;;;8400414;28;20072;-74
2021/12/21 00:57:22;;;;;;;21.35;9.50;;;;;;;;;;8400692;28;20045;-80
2021/12/21 01:01:26;;;;;;;24.25;9.88;;;;;;;;;;8400570;28;20485;-80
2021/12/21 01:05:35;;;;;;;21.00;9.30;;;;;;;;;;8399974;28;20052;-76
2021/12/21 01:14:10;;;;;;;19.20;9.50;;;;;;;;;;8399747;28;20048;-77
2021/12/21 01:18:18;;;;;;;21.15;9.95;;;;;;;;;;8399566;28;20053;-74
2021/12/21 01:22:35;;;;;;;17.08;8.07;;;;;;;;;;8399389;28;20052;-75
2021/12/21 01:26:50;;;;;;;15.13;7.75;;;;;;;;;;8399252;28;20102;-75
2021/12/21 01:31:00;;;;;;;16.58;8.40;;;;;;;;;;8399147;28;20044;-75
2021/12/21 01:35:12;;;;;;;16.08;8.45;;;;;;;;;;8399032;28;20074;-75
2021/12/21 01:39:41;;;;;;;21.23;7.82;;;;;;;;;;8398805;28;20502;-75
2021/12/21 01:43:43;;;;;;;18.25;7.85;;;;;;;;;;8398662;28;20536;-78
2021/12/21 01:52:09;;;;;;;24.67;9.30;;;;;;;;;;8398422;28;20041;-76
2021/12/21 01:56:13;;;;;;;29.73;9.05;;;;;;;;;;8391779;28;20044;-75
2021/12/21 02:00:17;;;;;;;17.88;8.65;;;;;;;;;;8366095;28;20135;-75
2021/12/21 02:04:20;;;;;;;20.98;7.80;;;;;;;;;;8364976;28;20045;-74
2021/12/21 02:08:24;;;;;;;19.67;8.07;;;;;;;;;;8364931;28;20079;-75
2021/12/21 02:12:27;;;;;;;25.77;10.13;;;;;;;;;;8369881;28;20041;-75
2021/12/21 02:16:38;;;;;;;23.70;8.85;;;;;;;;;;8383311;28;20451;-74
2021/12/21 02:20:47;;;;;;;19.13;8.10;;;;;;;;;;8398114;28;20048;-74
2021/12/21 02:24:59;;;;;;;18.13;7.60;;;;;;;;;;8398061;28;20135;-74
2021/12/21 02:33:28;;;;;;;17.88;7.85;;;;;;;;;;8378899;28;20052;-75
2021/12/21 02:37:32;;;;;;;16.75;7.30;;;;;;;;;;8394591;28;20056;-74
2021/12/21 02:41:36;;;;;;;13.05;6.97;;;;;;;;;;8394655;28;20471;-81
2021/12/21 02:45:39;;;;;;;12.90;6.15;;;;;;;;;;8386272;28;20059;-74
2021/12/21 02:49:42;;;;;;;13.05;5.97;;;;;;;;;;8395211;28;20051;-81
2021/12/21 02:53:47;;;;;;;14.38;5.78;;;;;;;;;;8392076;28;20041;-75
2021/12/21 02:57:50;;;;;;;10.43;5.13;;;;;;;;;;8392214;28;20131;-75
2021/12/21 03:01:53;;;;;;;9.05;4.68;;;;;;;;;;8378366;28;20041;-75
2021/12/21 03:05:57;;;;;;;10.30;4.63;;;;;;;;;;8395784;28;20474;-74
2021/12/21 03:10:03;;;;;;;7.22;4.85;;;;;;;;;;8397181;28;20053;-73
2021/12/21 03:14:08;;;;;;;9.80;4.70;;;;;;;;;;8396816;28;20055;-75
2021/12/21 03:18:11;;;;;;;9.82;4.88;;;;;;;;;;8396509;28;20101;-77
2021/12/21 03:22:15;;;;;;;9.13;5.20;;;;;;;;;;8396994;28;20147;-74
2021/12/21 03:26:20;;;;;;;11.60;4.90;;;;;;;;;;8396378;28;20045;-78
2021/12/21 03:30:22;;;;;;;9.35;4.82;;;;;;;;;;8396874;28;20045;-75
2021/12/21 03:34:26;;;;;;;10.93;5.45;;;;;;;;;;8395996;28;20053;-76
2021/12/21 03:38:31;;;;;;;10.40;5.30;;;;;;;;;;8396165;28;20044;-75
2021/12/21 03:42:36;;;;;;;10.57;4.57;;;;;;;;;;8396055;28;20048;-75
2021/12/21 03:46:45;;;;;;;12.60;5.03;;;;;;;;;;8396528;28;20403;-74
2021/12/21 03:50:48;;;;;;;10.63;4.88;;;;;;;;;;8395981;28;20045;-75
2021/12/21 03:54:53;;;;;;;11.73;5.43;;;;;;;;;;8395940;28;20101;-74
2021/12/21 03:58:58;;;;;;;11.27;4.85;;;;;;;;;;8396244;28;20048;-75
2021/12/21 04:03:01;;;;;;;9.30;4.78;;;;;;;;;;8402344;28;20056;-74
2021/12/21 04:07:04;;;;;;;9.85;5.03;;;;;;;;;;8402173;28;20052;-73
2021/12/21 04:11:07;;;;;;;10.20;4.78;;;;;;;;;;8401624;28;20056;-74
2021/12/21 04:15:13;;;;;;;11.70;6.10;;;;;;;;;;8402068;28;20044;-76
2021/12/21 04:19:18;;;;;;;9.10;5.18;;;;;;;;;;8401362;28;20140;-74
2021/12/21 04:23:21;;;;;;;13.20;5.57;;;;;;;;;;8401960;28;20052;-80
2021/12/21 04:27:24;;;;;;;9.75;5.50;;;;;;;;;;8401656;28;20055;-75
2021/12/21 04:31:29;;;;;;;8.98;4.95;;;;;;;;;;8401029;28;20041;-74
2021/12/21 04:35:32;;;;;;;10.18;4.70;;;;;;;;;;8400692;28;20143;-75
2021/12/21 04:39:40;;;;;;;8.23;4.90;;;;;;;;;;8401227;28;20464;-77
2021/12/21 04:43:44;;;;;;;12.20;5.70;;;;;;;;;;8400699;28;20052;-80
2021/12/21 04:47:49;;;;;;;11.57;5.40;;;;;;;;;;8400605;28;20040;-74
2021/12/21 04:51:52;;;;;;;8.63;4.40;;;;;;;;;;8400469;28;20074;-75
2021/12/21 04:55:55;;;;;;;10.85;5.43;;;;;;;;;;8400263;28;20048;-74
2021/12/21 04:59:58;;;;;;;10.00;5.40;;;;;;;;;;8400644;28;20472;-76
2021/12/21 05:04:03;;;;;;;10.20;5.07;;;;;;;;;;8400168;28;20056;-79
2021/12/21 05:08:08;;;;;;;10.75;5.47;;;;;;;;;;8400020;28;20055;-76
2021/12/21 05:12:13;;;;;;;9.02;5.47;;;;;;;;;;8398902;28;20603;-74
2021/12/21 05:16:16;;;;;;;14.32;5.32;;;;;;;;;;8399705;28;20045;-74
2021/12/21 05:20:20;;;;;;;12.30;5.28;;;;;;;;;;8399376;28;20049;-77
2021/12/21 05:24:23;;;;;;;12.02;4.85;;;;;;;;;;8399382;28;20049;-79
2021/12/21 05:28:27;;;;;;;11.35;5.88;;;;;;;;;;8399172;28;20048;-74
2021/12/21 05:32:29;;;;;;;9.18;4.78;;;;;;;;;;8399106;28;20074;-74
2021/12/21 05:36:34;;;;;;;11.85;5.45;;;;;;;;;;8398757;28;20052;-75
2021/12/21 05:40:39;;;;;;;15.00;6.35;;;;;;;;;;8398778;28;20045;-72
2021/12/21 05:44:43;;;;;;;15.60;7.40;;;;;;;;;;8398735;28;20040;-74
2021/12/21 05:48:45;;;;;;;14.68;5.97;;;;;;;;;;8399034;28;20072;-76
2021/12/21 05:52:50;;;;;;;11.25;5.10;;;;;;;;;;8398424;28;20045;-75
2021/12/21 05:56:53;;;;;;;13.07;5.75;;;;;;;;;;8398289;28;20049;-78
2021/12/21 06:00:56;;;;;;;14.30;6.35;;;;;;;;;;8398550;28;20047;-75
2021/12/21 06:04:59;;;;;;;13.35;6.55;;;;;;;;;;8398020;28;20554;-74
2021/12/21 06:09:07;;;;;;;13.15;6.60;;;;;;;;;;8397928;28;20074;-74
2021/12/21 06:13:25;;;;;;;20.92;7.38;;;;;;;;;;8397831;28;20190;-79
2021/12/21 06:26:14;;;;;;;13.80;6.97;;;;;;;;;;8397437;28;20070;-75
2021/12/21 06:30:17;;;;;;;13.00;5.82;;;;;;;;;;8397438;28;20131;-77
2021/12/21 06:34:20;;;;;;;12.07;5.00;;;;;;;;;;8397386;28;20514;-74
2021/12/21 06:38:24;;;;;;;11.68;5.38;;;;;;;;;;8397138;28;20075;-74
2021/12/21 06:42:30;;;;;;;15.43;5.55;;;;;;;;;;8397271;28;20130;-74
2021/12/21 06:46:52;;;;;;;17.75;7.60;;;;;;;;;;8397538;28;20051;-78
2021/12/21 06:51:16;;;;;;;;;;;;;;;;;;8393261;28;20399;-74
2021/12/21 06:55:19;;;;;;;18.55;6.13;;;;;;;;;;8361426;28;20390;-75
2021/12/21 06:59:24;;;;;;;14.05;6.47;;;;;;;;;;8361873;28;20060;-76
2021/12/21 07:03:27;;;;;;;13.73;5.80;;;;;;;;;;8363589;28;20140;-74
2021/12/21 07:07:30;;;;;;;15.85;8.18;;;;;;;;;;8364023;28;20490;-74
2021/12/21 07:11:41;;;;;;;16.15;7.90;;;;;;;;;;8364000;28;20045;-75
2021/12/21 07:20:08;;;;;;;14.65;6.68;;;;;;;;;;8363563;28;20480;-78
2021/12/21 07:24:11;;;;;;;12.90;7.57;;;;;;;;;;8363397;28;20404;-74
2021/12/21 07:28:14;;;;;;;14.02;6.45;;;;;;;;;;8363221;28;20048;-74
2021/12/21 07:32:19;;;;;;;13.25;6.38;;;;;;;;;;8363181;28;20056;-75
2021/12/21 07:36:21;;;;;;;8.70;4.82;;;;;;;;;;8367415;28;20048;-75
2021/12/21 07:40:25;;;;;;;5.63;2.95;;;;;;;;;;8369200;28;20052;-74
2021/12/21 07:44:28;;;;;;;9.90;3.63;;;;;;;;;;8369189;28;20056;-74
2021/12/21 07:48:35;;;;;;;10.43;4.38;;;;;;;;;;8370057;28;20045;-78
2021/12/21 07:52:38;;;;;;;5.55;3.13;;;;;;;;;;8369068;28;20492;-74
2021/12/21 07:56:41;;;;;;;8.77;4.15;;;;;;;;;;8369330;28;20487;-73
2021/12/21 08:00:45;;;;;;;9.05;4.75;;;;;;;;;;8368673;28;20059;-74
2021/12/21 08:04:52;;;;;;;10.80;4.07;;;;;;;;;;8375626;28;20044;-72
2021/12/21 08:08:55;;;;;;;5.43;3.17;;;;;;;;;;8390809;28;20095;-73
2021/12/21 08:13:08;;;;;;;7.93;3.63;;;;;;;;;;8399597;28;20052;-73
2021/12/21 08:17:22;;;;;;;8.07;3.13;;;;;;;;;;8366470;28;20131;-72
2021/12/21 08:21:30;;;;;;;15.15;6.55;;;;;;;;;;8377830;28;20040;-74
2021/12/21 08:25:54;;;;;;;20.52;6.47;;;;;;;;;;8395686;28;20094;-74
2021/12/21 08:30:01;;;;;;;8.07;4.18;;;;;;;;;;8398200;28;20428;-73
2021/12/21 08:34:10;;;;;;;9.25;3.47;;;;;;;;;;8400123;28;20060;-74
2021/12/21 08:38:18;;;;;;;12.55;4.45;;;;;;;;;;8400107;28;20480;-75
2021/12/21 08:42:24;;;;;;;21.70;8.63;;;;;;;;;;8400894;28;20049;-73
2021/12/21 08:46:30;;;;;;;8.43;3.45;;;;;;;;;;8400275;28;20435;-73
2021/12/21 08:50:36;;;;;;;8.70;4.18;;;;;;;;;;8400234;28;20527;-72
2021/12/21 08:54:41;;;;;;;13.48;4.95;;;;;;;;;;8399693;28;20076;-74
2021/12/21 08:58:43;;;;;;;6.75;2.80;;;;;;;;;;8399647;28;20044;-75
2021/12/21 09:02:47;;;;;;;21.33;6.63;;;;;;;;;;8399762;28;20052;-74
2021/12/21 09:06:50;;;;;;;21.42;6.28;;;;;;;;;;8399569;28;20045;-72
2021/12/21 09:11:03;;;;;;;11.00;4.15;;;;;;;;;;8399476;28;20040;-74
2021/12/21 09:15:09;;;;;;;11.25;5.30;;;;;;;;;;8399773;28;20373;-73
2021/12/21 09:19:12;;;;;;;12.02;5.18;;;;;;;;;;8399019;28;20044;-72
2021/12/21 09:23:15;;;;;;;8.90;3.67;;;;;;;;;;8399456;28;20481;-75
2021/12/21 09:27:21;;;;;;;15.80;4.88;;;;;;;;;;8399434;28;20069;-75
2021/12/21 09:31:24;;;;;;;7.10;3.35;;;;;;;;;;8398710;28;20389;-76
2021/12/21 09:35:28;;;;;;;7.53;3.53;;;;;;;;;;8398103;28;20060;-74
2021/12/21 09:39:30;;;;;;;5.95;3.88;;;;;;;;;;8398861;28;20059;-75
2021/12/21 09:43:35;;;;;;;13.77;6.40;;;;;;;;;;8398350;28;20051;-74
2021/12/21 09:47:38;;;;;;;40.45;11.82;;;;;;;;;;8398659;28;20132;-73
2021/12/21 09:51:41;;;;;;;6.20;3.58;;;;;;;;;;8397876;28;20052;-74
2021/12/21 09:55:47;;;;;;;9.93;3.88;;;;;;;;;;8397820;28;20047;-73
2021/12/21 09:59:52;;;;;;;5.18;3.25;;;;;;;;;;8388736;28;20066;-73
2021/12/21 10:03:56;;;;;;;7.40;3.00;;;;;;;;;;8376490;28;20458;-75
2021/12/21 10:08:02;;;;;;;6.30;3.38;;;;;;;;;;8373138;28;20052;-75
2021/12/21 10:12:07;;;;;;;6.15;2.97;;;;;;;;;;8391707;28;20049;-73
2021/12/21 10:16:12;;;;;;;5.78;2.90;;;;;;;;;;8369580;28;20052;-74
2021/12/21 10:20:31;;;;;;;6.35;2.90;;;;;;;;;;8392339;28;20072;-75
2021/12/21 10:24:45;;;;;;;15.73;7.10;;;;;;;;;;8382928;28;20052;-73
2021/12/21 10:28:51;;;;;;;13.32;5.00;;;;;;;;;;8361263;28;20045;-80
2021/12/21 10:32:59;;;;;;;11.27;4.57;;;;;;;;;;8362672;28;20471;-74
2021/12/21 10:37:05;;;;;;;12.63;4.00;;;;;;;;;;8362616;28;20484;-74
2021/12/21 10:41:11;;;;;;;40.40;18.20;;;;;;;;;;8363494;28;20435;-74
2021/12/21 10:45:15;;;;;;;7.43;3.90;;;;;;;;;;8363599;28;20041;-74
2021/12/21 10:49:26;;;;;;;8.00;4.10;;;;;;;;;;8370115;28;20587;-72
2021/12/21 10:53:31;;;;;;;7.63;3.22;;;;;;;;;;8382468;28;20049;-75
2021/12/21 10:57:36;;;;;;;10.18;3.35;;;;;;;;;;8391000;28;20476;-74
2021/12/21 11:01:44;;;;;;;28.88;12.80;;;;;;;;;;8380747;28;20048;-74
2021/12/21 11:05:49;;;;;;;11.63;5.60;;;;;;;;;;8384431;28;20581;-75
2021/12/21 11:09:59;;;;;;;13.57;6.00;;;;;;;;;;8398456;28;20519;-72
2021/12/21 11:14:08;;;;;;;23.92;8.68;;;;;;;;;;8403569;28;20407;-74
2021/12/21 11:18:18;;;;;;;11.23;5.28;;;;;;;;;;8400022;28;20072;-74
2021/12/21 11:22:28;;;;;;;10.32;4.72;;;;;;;;;;8369974;28;20041;-74
2021/12/21 11:26:34;;;;;;;10.15;3.90;;;;;;;;;;8379365;28;20044;-75
2021/12/21 11:30:38;;;;;;;7.43;3.78;;;;;;;;;;8399882;28;20471;-74
2021/12/21 11:35:08;;;;;;;10.73;5.28;;;;;;;;;;8399820;28;20052;-74
2021/12/21 11:39:12;;;;;;;9.27;4.68;;;;;;;;;;8400530;28;20072;-74
2021/12/21 11:43:24;;;;;;;10.25;4.43;;;;;;;;;;8401870;28;20044;-74
2021/12/21 11:47:32;;;;;;;12.55;4.90;;;;;;;;;;8400757;28;20044;-81
2021/12/21 11:51:35;;;;;;;9.90;4.13;;;;;;;;;;8401476;28;20069;-80
2021/12/21 11:55:42;;;;;;;8.43;4.45;;;;;;;;;;8402220;28;20041;-81
2021/12/21 11:59:45;;;;;;;9.05;4.22;;;;;;;;;;8401941;28;20048;-79
2021/12/21 12:03:58;;;;;;;9.07;4.57;;;;;;;;;;8402459;28;20502;-79
2021/12/21 12:08:03;;;;;;;10.38;4.88;;;;;;;;;;8401929;28;20049;-75
2021/12/21 12:12:11;;;;;;;8.23;4.35;;;;;;;;;;8401586;28;20052;-80
2021/12/21 12:16:16;;;;;;;9.45;5.03;;;;;;;;;;8390465;28;20049;-74
2021/12/21 12:20:27;;;;;;;9.73;4.18;;;;;;;;;;8383301;28;20045;-77
2021/12/21 12:24:36;;;;;;;12.30;5.28;;;;;;;;;;8391993;28;20144;-76
2021/12/21 12:28:40;;;;;;;16.48;6.75;;;;;;;;;;8398472;28;20048;-74
2021/12/21 12:32:47;;;;;;;21.08;7.30;;;;;;;;;;8386024;28;20476;-79
2021/12/21 12:36:51;;;;;;;17.50;8.27;;;;;;;;;;8379120;28;20052;-74
2021/12/21 12:40:58;;;;;;;14.98;6.93;;;;;;;;;;8400028;28;20457;-74
2021/12/21 12:45:11;;;;;;;22.33;8.85;;;;;;;;;;8382374;28;20507;-72
2021/12/21 12:49:24;;;;;;;63.22;16.88;;;;;;;;;;8368976;28;20045;-75
2021/12/21 12:53:37;;;;;;;11.15;5.18;;;;;;;;;;8386245;28;20037;-75
2021/12/21 12:57:49;;;;;;;24.63;9.32;;;;;;;;;;8387987;28;20045;-76
2021/12/21 13:01:58;;;;;;;29.58;11.15;;;;;;;;;;8388111;28;20488;-75
2021/12/21 13:06:08;;;;;;;44.28;17.60;;;;;;;;;;8368388;28;20048;-75
2021/12/21 13:10:13;;;;;;;43.28;17.30;;;;;;;;;;8389181;28;20048;-73
2021/12/21 13:14:18;;;;;;;46.13;15.85;;;;;;;;;;8379233;28;20049;-74
2021/12/21 13:18:23;;;;;;;27.23;11.63;;;;;;;;;;8366446;28;20472;-75
2021/12/21 13:22:27;;;;;;;44.53;19.98;;;;;;;;;;8375790;28;20044;-79
2021/12/21 13:26:35;;;;;;;35.58;13.52;;;;;;;;;;8374795;28;20041;-74
2021/12/21 13:30:38;;;;;;;25.65;12.10;;;;;;;;;;8371566;28;20073;-78
2021/12/21 13:34:45;;;;;;;25.25;10.02;;;;;;;;;;8375244;28;20045;-74
2021/12/21 13:38:48;;;;;;;16.17;6.57;;;;;;;;;;8398248;28;20384;-74
2021/12/21 13:42:51;;;;;;;20.67;9.55;;;;;;;;;;8370241;28;20479;-75
2021/12/21 13:46:56;;;;;;;12.40;6.10;;;;;;;;;;8367057;28;20045;-80
2021/12/21 13:51:14;;;;;;;24.23;9.63;;;;;;;;;;8365176;28;20436;-74
2021/12/21 13:55:25;;;;;;;18.23;8.07;;;;;;;;;;8364696;28;20044;-75
2021/12/21 13:59:27;;;;;;;17.98;6.97;;;;;;;;;;8367393;28;20044;-74
2021/12/21 14:03:37;;;;;;;19.88;9.02;;;;;;;;;;8366096;28;20099;-73
2021/12/21 14:07:44;;;;;;;26.02;11.13;;;;;;;;;;8373906;28;20041;-75
2021/12/21 14:11:54;;;;;;;55.85;20.50;;;;;;;;;;8365141;28;20048;-74
2021/12/21 14:15:58;;;;;;;44.38;15.10;;;;;;;;;;8365116;28;20504;-75
2021/12/21 14:20:06;;;;;;;76.50;20.58;;;;;;;;;;8364309;28;20094;-79
2021/12/21 14:24:13;;;;;;;43.28;15.38;;;;;;;;;;8363224;28;20041;-73
2021/12/21 14:28:16;;;;;;;58.85;20.83;;;;;;;;;;8362603;28;20091;-76
2021/12/21 14:32:41;;;;;;;50.63;20.63;;;;;;;;;;8368795;28;20041;-72
2021/12/21 14:36:45;;;;;;;43.58;20.88;;;;;;;;;;8378779;28;20103;-74
2021/12/21 14:40:52;;;;;;;80.30;27.52;;;;;;;;;;8376489;28;20098;-74
2021/12/21 14:44:57;;;;;;;85.07;28.85;;;;;;;;;;8363599;28;20099;-74
2021/12/21 14:49:05;;;;;;;74.32;27.83;;;;;;;;;;8374113;28;20060;-74
2021/12/21 14:53:16;;;;;;;73.65;27.77;;;;;;;;;;8392523;28;20054;-76
2021/12/21 14:57:30;;;;;;;61.67;23.48;;;;;;;;;;8396552;28;20068;-74
2021/12/21 15:01:38;;;;;;;69.97;24.02;;;;;;;;;;8372202;28;20090;-75
2021/12/21 15:05:42;;;;;;;69.07;26.90;;;;;;;;;;8380016;28;20049;-75
2021/12/21 15:09:45;;;;;;;133.10;48.20;;;;;;;;;;8395656;28;20051;-74
2021/12/21 15:13:50;;;;;;;89.50;32.92;;;;;;;;;;8369923;28;20037;-76
2021/12/21 15:17:54;;;;;;;59.17;22.63;;;;;;;;;;8372323;28;20503;-75
2021/12/21 15:21:58;;;;;;;55.72;21.58;;;;;;;;;;8362897;28;20053;-76
2021/12/21 15:26:01;;;;;;;219.43;69.10;;;;;;;;;;8368071;28;20047;-74
2021/12/21 15:30:15;;;;;;;130.25;40.90;;;;;;;;;;8362293;28;20056;-75
2021/12/21 15:34:19;;;;;;;113.65;44.25;;;;;;;;;;8362644;28;20144;-73
2021/12/21 15:38:41;;;;;;;111.55;36.58;;;;;;;;;;8363224;28;20052;-74
2021/12/21 15:43:15;;;;;;;128.02;37.42;;;;;;;;;;8362376;28;20053;-74
2021/12/21 15:47:50;;;;;;;140.85;46.28;;;;;;;;;;8361692;28;20045;-78
2021/12/21 15:51:54;;;;;;;133.65;45.63;;;;;;;;;;8364815;28;20396;-75
2021/12/21 15:56:18;;;;;;;86.55;31.67;;;;;;;;;;8381790;28;20044;-74
2021/12/21 16:00:30;;;;;;;38.90;15.77;;;;;;;;;;8379297;28;20548;-79
2021/12/21 16:04:41;;;;;;;47.92;20.27;;;;;;;;;;8381963;28;20053;-76
2021/12/21 16:08:52;;;;;;;90.18;32.45;;;;;;;;;;8380210;28;20051;-74
2021/12/21 16:18:00;;;;;;;79.93;28.42;;;;;;;;;;8367666;28;20052;-80
2021/12/21 16:22:30;;;;;;;123.93;36.60;;;;;;;;;;8379342;28;20071;-74
2021/12/21 16:27:05;;;;;;;214.18;44.85;;;;;;;;;;8370565;28;20040;-73
2021/12/21 16:31:26;;;;;;;147.23;32.45;;;;;;;;;;8366792;28;20048;-75
2021/12/21 16:35:36;;;;;;;123.13;31.20;;;;;;;;;;8365717;28;20073;-75
2021/12/21 16:39:59;;;;;;;118.95;31.90;;;;;;;;;;8367482;28;20045;-73
2021/12/21 16:44:09;;;;;;;69.45;26.63;;;;;;;;;;8367724;28;20137;-76
2021/12/21 16:48:30;;;;;;;79.85;24.58;;;;;;;;;;8367152;28;20045;-74
2021/12/21 16:52:56;;;;;;;64.28;24.65;;;;;;;;;;8367132;28;20040;-74
2021/12/21 16:57:08;;;;;;;109.47;32.15;;;;;;;;;;8367165;28;20480;-73
2021/12/21 17:01:14;;;;;;;62.60;25.23;;;;;;;;;;8366543;28;20053;-75
2021/12/21 17:05:19;;;;;;;144.80;36.45;;;;;;;;;;8366697;28;20416;-74
2021/12/21 17:09:23;;;;;;;131.35;37.05;;;;;;;;;;8365358;28;20057;-75
2021/12/21 17:13:32;;;;;;;138.57;33.55;;;;;;;;;;8366292;28;20053;-75
2021/12/21 17:17:37;;;;;;;158.75;36.83;;;;;;;;;;8366874;28;20053;-74
2021/12/21 17:21:41;;;;;;;102.60;30.45;;;;;;;;;;8366066;28;20049;-74
2021/12/21 17:25:46;;;;;;;58.45;17.70;;;;;;;;;;8366190;28;20048;-75
2021/12/21 17:29:53;;;;;;;94.70;22.98;;;;;;;;;;8367316;28;20550;-74
2021/12/21 17:33:59;;;;;;;73.82;21.77;;;;;;;;;;8392330;28;20052;-75
2021/12/21 17:38:03;;;;;;;216.38;47.92;;;;;;;;;;8397750;28;20373;-74
2021/12/21 17:42:11;;;;;;;143.05;35.13;;;;;;;;;;8398773;28;20052;-73
2021/12/21 17:46:16;;;;;;;132.70;32.15;;;;;;;;;;8399332;28;20578;-75
2021/12/21 17:50:19;;;;;;;104.82;33.22;;;;;;;;;;8398616;28;20059;-72
2021/12/21 17:54:23;;;;;;;205.52;65.47;;;;;;;;;;8398914;28;20051;-75
2021/12/21 17:58:26;;;;;;;156.35;50.92;;;;;;;;;;8398346;28;20048;-73
2021/12/21 18:02:30;;;;;;;150.00;46.05;;;;;;;;;;8395486;28;20053;-75
2021/12/21 18:06:33;;;;;;;111.95;34.63;;;;;;;;;;8385353;28;20403;-74
2021/12/21 18:10:37;;;;;;;76.63;27.55;;;;;;;;;;8384644;28;20045;-74
2021/12/21 18:14:41;;;;;;;98.88;32.50;;;;;;;;;;8380487;28;20048;-74
2021/12/21 18:18:47;;;;;;;306.30;84.82;;;;;;;;;;8383472;28;20044;-73
2021/12/21 18:22:50;;;;;;;95.68;35.33;;;;;;;;;;8383146;28;20054;-74
2021/12/21 18:26:53;;;;;;;95.40;33.63;;;;;;;;;;8383287;28;20044;-75
2021/12/21 18:30:59;;;;;;;102.10;32.50;;;;;;;;;;8372166;28;20586;-76
2021/12/21 18:35:05;;;;;;;93.97;31.00;;;;;;;;;;8364066;28;20060;-75
2021/12/21 18:39:13;;;;;;;77.53;31.80;;;;;;;;;;8383952;28;20522;-76
2021/12/21 18:43:17;;;;;;;74.13;29.85;;;;;;;;;;8364101;28;20521;-75
2021/12/21 18:47:20;;;;;;;84.07;28.42;;;;;;;;;;8375511;28;20506;-74
2021/12/21 18:51:25;;;;;;;113.97;38.60;;;;;;;;;;8374401;28;20049;-76
2021/12/21 18:55:30;;;;;;;139.15;43.00;;;;;;;;;;8376267;28;20397;-75
2021/12/21 18:59:33;;;;;;;98.60;35.05;;;;;;;;;;8374044;28;20060;-78
2021/12/21 19:03:36;;;;;;;91.50;35.42;;;;;;;;;;8373011;28;20131;-73
2021/12/21 19:07:41;;;;;;;66.57;25.88;;;;;;;;;;8373347;28;20052;-75
2021/12/21 19:11:44;;;;;;;94.55;28.27;;;;;;;;;;8383100;28;20045;-78
2021/12/21 19:15:46;;;;;;;98.63;31.15;;;;;;;;;;8396707;28;20040;-74
2021/12/21 19:19:49;;;;;;;66.93;21.70;;;;;;;;;;8396721;28;20091;-74
2021/12/21 19:23:55;;;;;;;82.20;24.10;;;;;;;;;;8396487;28;20044;-73
2021/12/21 19:27:58;;;;;;;266.45;53.15;;;;;;;;;;8396588;28;20150;-73
2021/12/21 19:32:02;;;;;;;191.23;40.85;;;;;;;;;;8400400;28;20052;-75
2021/12/21 19:36:05;;;;;;;194.95;44.92;;;;;;;;;;8402907;28;20472;-73
2021/12/21 19:40:12;;;;;;;107.28;30.95;;;;;;;;;;8403045;28;20051;-75
2021/12/21 19:44:15;;;;;;;236.52;55.55;;;;;;;;;;8402913;28;20136;-73
2021/12/21 19:48:20;;;;;;;96.45;29.67;;;;;;;;;;8403073;28;20044;-75
2021/12/21 19:52:23;;;;;;;37.85;15.55;;;;;;;;;;8403044;28;20047;-74
2021/12/21 19:56:30;;;;;;;211.80;48.03;;;;;;;;;;8402373;28;20044;-73
2021/12/21 20:00:35;;;;;;;112.60;28.17;;;;;;;;;;8393883;28;20429;-73
2021/12/21 20:04:39;;;;;;;77.15;21.23;;;;;;;;;;8374279;28;20048;-75
2021/12/21 20:08:42;;;;;;;153.60;38.58;;;;;;;;;;8387113;28;20056;-75
2021/12/21 20:12:51;;;;;;;35.20;13.23;;;;;;;;;;8396993;28;20071;-74
2021/12/21 20:16:56;;;;;;;103.30;30.60;;;;;;;;;;8390455;28;20118;-79
2021/12/21 20:21:01;;;;;;;390.80;92.47;;;;;;;;;;8388710;28;20053;-74
2021/12/21 20:25:04;;;;;;;168.73;45.08;;;;;;;;;;8382952;28;20052;-73
2021/12/21 20:29:22;;;;;;;211.90;51.33;;;;;;;;;;8386789;28;20420;-73
2021/12/21 20:33:44;;;;;;;93.18;26.85;;;;;;;;;;8396594;28;20091;-75
2021/12/21 20:37:59;;;;;;;153.80;38.75;;;;;;;;;;8382251;28;20492;-73
2021/12/21 20:42:15;;;;;;;149.82;36.20;;;;;;;;;;8385622;28;20056;-75
2021/12/21 20:46:37;;;;;;;105.00;29.80;;;;;;;;;;8367418;28;20132;-75
2021/12/21 20:50:44;;;;;;;52.97;18.70;;;;;;;;;;8367051;28;20060;-76
2021/12/21 20:54:47;;;;;;;26.88;11.30;;;;;;;;;;8393936;28;20048;-75
2021/12/21 20:58:50;;;;;;;83.18;27.08;;;;;;;;;;8391744;28;20416;-74
2021/12/21 21:02:55;;;;;;;141.25;35.38;;;;;;;;;;8398250;28;20055;-74
2021/12/21 21:06:58;;;;;;;106.10;26.83;;;;;;;;;;8397172;28;20115;-75
2021/12/21 21:11:01;;;;;;;237.23;53.33;;;;;;;;;;8396156;28;20053;-74
2021/12/21 21:15:06;;;;;;;135.35;32.83;;;;;;;;;;8397196;28;20055;-74
2021/12/21 21:19:11;;;;;;;162.57;36.28;;;;;;;;;;8395572;28;20488;-75
2021/12/21 21:23:14;;;;;;;71.35;21.58;;;;;;;;;;8396052;28;20079;-75
2021/12/21 21:27:17;;;;;;;125.45;31.33;;;;;;;;;;8399751;28;20384;-77
2021/12/21 21:31:20;;;;;;;87.65;22.40;;;;;;;;;;8399420;28;20055;-74
2021/12/21 21:35:26;;;;;;;62.35;18.92;;;;;;;;;;8399049;28;20140;-76
2021/12/21 21:39:29;;;;;;;55.25;18.63;;;;;;;;;;8399140;28;20095;-76
2021/12/21 21:43:32;;;;;;;91.05;25.75;;;;;;;;;;8399389;28;20106;-75
2021/12/21 21:47:37;;;;;;;56.65;20.65;;;;;;;;;;8399351;28;20045;-74
2021/12/21 21:51:42;;;;;;;153.18;40.47;;;;;;;;;;8398668;28;20045;-73
2021/12/21 21:55:45;;;;;;;94.22;24.15;;;;;;;;;;8398353;28;20099;-75
2021/12/21 21:59:47;;;;;;;77.75;21.35;;;;;;;;;;8398409;28;20048;-78
2021/12/21 22:03:51;;;;;;;53.65;17.92;;;;;;;;;;8398383;28;20045;-73
2021/12/21 22:07:55;;;;;;;72.20;22.55;;;;;;;;;;8398698;28;20049;-76
2021/12/21 22:11:59;;;;;;;50.50;20.15;;;;;;;;;;8398514;28;20044;-78
2021/12/21 22:16:01;;;;;;;88.05;25.42;;;;;;;;;;8398405;28;20049;-73
2021/12/21 22:20:06;;;;;;;99.30;27.35;;;;;;;;;;8397884;28;20495;-76
2021/12/21 22:24:10;;;;;;;114.68;32.28;;;;;;;;;;8397645;28;20135;-74
2021/12/21 22:28:13;;;;;;;53.08;19.00;;;;;;;;;;8397671;28;20044;-75
2021/12/21 22:32:16;;;;;;;49.78;19.00;;;;;;;;;;8397474;28;20078;-74
2021/12/21 22:36:19;;;;;;;49.53;17.63;;;;;;;;;;8397306;28;20059;-76
2021/12/21 22:40:23;;;;;;;46.25;17.42;;;;;;;;;;8397821;28;20049;-75
2021/12/21 22:44:26;;;;;;;34.00;15.38;;;;;;;;;;8398094;28;20052;-73
2021/12/21 22:48:28;;;;;;;94.05;29.33;;;;;;;;;;8397204;28;20090;-74
2021/12/21 22:52:31;;;;;;;119.85;32.72;;;;;;;;;;8397069;28;20074;-74
2021/12/21 22:56:35;;;;;;;69.93;22.85;;;;;;;;;;8397107;28;20044;-79
2021/12/21 23:00:42;;;;;;;84.10;27.52;;;;;;;;;;8397386;28;20076;-74
2021/12/21 23:04:45;;;;;;;65.32;21.15;;;;;;;;;;8396756;28;20132;-75
2021/12/21 23:08:47;;;;;;;78.85;23.13;;;;;;;;;;8396810;28;20052;-74
2021/12/21 23:12:52;;;;;;;77.50;25.52;;;;;;;;;;8396764;28;20052;-74
2021/12/21 23:16:54;;;;;;;101.93;28.50;;;;;;;;;;8397160;28;20471;-74
2021/12/21 23:20:57;;;;;;;99.10;29.23;;;;;;;;;;8396670;28;20040;-74
2021/12/21 23:25:00;;;;;;;76.82;22.58;;;;;;;;;;8396891;28;20055;-74
2021/12/21 23:29:04;;;;;;;93.32;26.52;;;;;;;;;;8396561;28;20123;-74
2021/12/21 23:33:07;;;;;;;106.47;28.00;;;;;;;;;;8396709;28;20048;-74
2021/12/21 23:37:10;;;;;;;55.78;19.27;;;;;;;;;;8396510;28;20044;-74
2021/12/21 23:41:13;;;;;;;56.28;18.98;;;;;;;;;;8396376;28;20468;-74
2021/12/21 23:45:18;;;;;;;100.43;29.08;;;;;;;;;;8396761;28;20051;-74
2021/12/21 23:49:21;;;;;;;52.20;18.88;;;;;;;;;;8396692;28;20044;-74
2021/12/21 23:53:24;;;;;;;62.97;20.60;;;;;;;;;;8396094;28;20056;-75
2021/12/21 23:57:26;;;;;;;40.97;16.67;;;;;;;;;;8396451;28;20045;-74
